sensor_id;sensor_type;location;lat;lon;timestamp;P1;durP1;ratioP1;P2;durP2;ratioP2
3050;SDS011;1535;51.098;6.414;2024-03-17T00:01:53;9.53;;;9.33;;
3050;SDS011;1535;51.098;6.414;2024-03-17T00:04:20;8.77;;;8.67;;
3050;SDS011;1535;51.098;6.414;2024-03-17T00:06:48;9.10;;;8.90;;
3050;SDS011;1535;51.098;6.414;2024-03-17T00:09:15;8.50;;;8.40;;
3050;SDS011;1535;51.098;6.414;2024-03-17T00:11:43;8.37;;;8.27;;
3050;SDS011;1535;51.098;6.414;2024-03-17T00:14:11;8.53;;;8.43;;
3050;SDS011;1535;51.098;6.414;2024-03-17T00:16:38;8.50;;;8.40;;
3050;SDS011;1535;51.098;6.414;2024-03-17T00:19:04;8.30;;;8.20;;
3050;SDS011;1535;51.098;6.414;2024-03-17T00:21:32;9.00;;;8.80;;
3050;SDS011;1535;51.098;6.414;2024-03-17T00:23:59;7.97;;;7.87;;
3050;SDS011;1535;51.098;6.414;2024-03-17T00:26:27;8.87;;;8.70;;
3050;SDS011;1535;51.098;6.414;2024-03-17T00:28:55;9.07;;;8.87;;
3050;SDS011;1535;51.098;6.414;2024-03-17T00:31:21;8.70;;;8.60;;
3050;SDS011;1535;51.098;6.414;2024-03-17T00:33:51;9.10;;;8.90;;
3050;SDS011;1535;51.098;6.414;2024-03-17T00:36:17;8.67;;;8.53;;
3050;SDS011;1535;51.098;6.414;2024-03-17T00:38:45;9.67;;;9.47;;
3050;SDS011;1535;51.098;6.414;2024-03-17T00:41:13;9.10;;;8.90;;
3050;SDS011;1535;51.098;6.414;2024-03-17T00:43:41;9.40;;;9.20;;
3050;SDS011;1535;51.098;6.414;2024-03-17T00:46:07;9.20;;;9.00;;
3050;SDS011;1535;51.098;6.414;2024-03-17T00:48:34;8.90;;;8.70;;
3050;SDS011;1535;51.098;6.414;2024-03-17T00:51:01;9.27;;;9.07;;
3050;SDS011;1535;51.098;6.414;2024-03-17T00:53:28;9.00;;;8.80;;
3050;SDS011;1535;51.098;6.414;2024-03-17T00:55:55;8.70;;;8.60;;
3050;SDS011;1535;51.098;6.414;2024-03-17T00:58:24;8.93;;;8.73;;
3050;SDS011;1535;51.098;6.414;2024-03-17T01:00:50;8.47;;;8.37;;
3050;SDS011;1535;51.098;6.414;2024-03-17T01:03:18;8.50;;;8.40;;
3050;SDS011;1535;51.098;6.414;2024-03-17T01:05:44;8.13;;;8.03;;
3050;SDS011;1535;51.098;6.414;2024-03-17T01:08:13;8.50;;;8.40;;
3050;SDS011;1535;51.098;6.414;2024-03-17T01:10:39;8.10;;;8.00;;
3050;SDS011;1535;51.098;6.414;2024-03-17T01:13:07;8.07;;;7.97;;
3050;SDS011;1535;51.098;6.414;2024-03-17T01:15:35;8.00;;;7.90;;
3050;SDS011;1535;51.098;6.414;2024-03-17T01:18:02;7.90;;;7.80;;
3050;SDS011;1535;51.098;6.414;2024-03-17T01:20:29;8.60;;;8.50;;
3050;SDS011;1535;51.098;6.414;2024-03-17T01:22:56;9.30;;;9.10;;
3050;SDS011;1535;51.098;6.414;2024-03-17T01:25:23;8.30;;;8.20;;
3050;SDS011;1535;51.098;6.414;2024-03-17T01:27:50;8.20;;;8.10;;
3050;SDS011;1535;51.098;6.414;2024-03-17T01:30:17;8.40;;;8.30;;
3050;SDS011;1535;51.098;6.414;2024-03-17T01:32:45;8.33;;;8.23;;
3050;SDS011;1535;51.098;6.414;2024-03-17T01:35:14;8.60;;;8.50;;
3050;SDS011;1535;51.098;6.414;2024-03-17T01:37:40;8.90;;;8.80;;
3050;SDS011;1535;51.098;6.414;2024-03-17T01:40:08;8.60;;;8.50;;
3050;SDS011;1535;51.098;6.414;2024-03-17T01:42:35;8.30;;;8.20;;
3050;SDS011;1535;51.098;6.414;2024-03-17T01:45:05;7.95;;;7.85;;
3050;SDS011;1535;51.098;6.414;2024-03-17T01:47:45;8.20;;;8.10;;
3050;SDS011;1535;51.098;6.414;2024-03-17T01:50:12;8.70;;;8.60;;
3050;SDS011;1535;51.098;6.414;2024-03-17T01:52:41;8.30;;;8.20;;
3050;SDS011;1535;51.098;6.414;2024-03-17T01:55:09;8.30;;;8.20;;
3050;SDS011;1535;51.098;6.414;2024-03-17T01:57:36;7.83;;;7.73;;
3050;SDS011;1535;51.098;6.414;2024-03-17T02:00:03;8.43;;;8.33;;
3050;SDS011;1535;51.098;6.414;2024-03-17T02:02:33;7.90;;;7.80;;
3050;SDS011;1535;51.098;6.414;2024-03-17T02:05:02;8.60;;;8.50;;
3050;SDS011;1535;51.098;6.414;2024-03-17T02:07:28;8.80;;;8.70;;
3050;SDS011;1535;51.098;6.414;2024-03-17T02:09:56;8.80;;;8.70;;
3050;SDS011;1535;51.098;6.414;2024-03-17T02:12:22;9.20;;;9.00;;
3050;SDS011;1535;51.098;6.414;2024-03-17T02:14:50;9.30;;;9.10;;
3050;SDS011;1535;51.098;6.414;2024-03-17T02:17:16;8.77;;;8.67;;
3050;SDS011;1535;51.098;6.414;2024-03-17T02:19:44;9.33;;;9.13;;
3050;SDS011;1535;51.098;6.414;2024-03-17T02:22:13;9.10;;;8.90;;
3050;SDS011;1535;51.098;6.414;2024-03-17T02:24:40;8.67;;;8.57;;
3050;SDS011;1535;51.098;6.414;2024-03-17T02:27:06;8.27;;;8.17;;
3050;SDS011;1535;51.098;6.414;2024-03-17T02:29:34;8.00;;;7.90;;
3050;SDS011;1535;51.098;6.414;2024-03-17T02:32:01;8.57;;;8.47;;
3050;SDS011;1535;51.098;6.414;2024-03-17T02:34:32;8.23;;;8.13;;
3050;SDS011;1535;51.098;6.414;2024-03-17T02:36:58;8.10;;;8.00;;
3050;SDS011;1535;51.098;6.414;2024-03-17T02:39:27;7.80;;;7.70;;
3050;SDS011;1535;51.098;6.414;2024-03-17T02:41:59;8.00;;;7.90;;
3050;SDS011;1535;51.098;6.414;2024-03-17T02:44:27;7.50;;;7.40;;
3050;SDS011;1535;51.098;6.414;2024-03-17T02:46:55;7.30;;;7.20;;
3050;SDS011;1535;51.098;6.414;2024-03-17T02:49:22;7.20;;;7.10;;
3050;SDS011;1535;51.098;6.414;2024-03-17T02:51:50;7.30;;;7.20;;
3050;SDS011;1535;51.098;6.414;2024-03-17T02:54:17;7.03;;;6.93;;
3050;SDS011;1535;51.098;6.414;2024-03-17T02:56:45;7.00;;;6.90;;
3050;SDS011;1535;51.098;6.414;2024-03-17T02:59:12;7.10;;;7.00;;
3050;SDS011;1535;51.098;6.414;2024-03-17T03:01:40;6.80;;;6.70;;
3050;SDS011;1535;51.098;6.414;2024-03-17T03:04:08;7.00;;;6.90;;
3050;SDS011;1535;51.098;6.414;2024-03-17T03:06:35;7.50;;;7.40;;
3050;SDS011;1535;51.098;6.414;2024-03-17T03:09:03;6.97;;;6.87;;
3050;SDS011;1535;51.098;6.414;2024-03-17T03:11:35;7.10;;;7.00;;
3050;SDS011;1535;51.098;6.414;2024-03-17T03:14:03;6.57;;;6.47;;
3050;SDS011;1535;51.098;6.414;2024-03-17T03:16:31;6.87;;;6.77;;
3050;SDS011;1535;51.098;6.414;2024-03-17T03:18:58;7.10;;;7.00;;
3050;SDS011;1535;51.098;6.414;2024-03-17T03:21:25;7.03;;;6.93;;
3050;SDS011;1535;51.098;6.414;2024-03-17T03:23:52;7.40;;;7.30;;
3050;SDS011;1535;51.098;6.414;2024-03-17T03:26:19;7.30;;;7.20;;
3050;SDS011;1535;51.098;6.414;2024-03-17T03:28:48;7.07;;;6.97;;
3050;SDS011;1535;51.098;6.414;2024-03-17T03:31:17;7.10;;;7.00;;
3050;SDS011;1535;51.098;6.414;2024-03-17T03:33:44;7.20;;;7.10;;
3050;SDS011;1535;51.098;6.414;2024-03-17T03:36:12;7.30;;;7.20;;
3050;SDS011;1535;51.098;6.414;2024-03-17T03:38:39;7.00;;;6.90;;
3050;SDS011;1535;51.098;6.414;2024-03-17T03:41:07;7.00;;;6.90;;
3050;SDS011;1535;51.098;6.414;2024-03-17T03:43:34;7.30;;;7.20;;
3050;SDS011;1535;51.098;6.414;2024-03-17T03:46:02;7.27;;;7.17;;
3050;SDS011;1535;51.098;6.414;2024-03-17T03:48:30;6.90;;;6.80;;
3050;SDS011;1535;51.098;6.414;2024-03-17T03:50:59;7.00;;;6.90;;
3050;SDS011;1535;51.098;6.414;2024-03-17T03:53:26;7.37;;;7.27;;
3050;SDS011;1535;51.098;6.414;2024-03-17T03:55:53;7.30;;;7.20;;
3050;SDS011;1535;51.098;6.414;2024-03-17T03:58:20;8.27;;;8.17;;
3050;SDS011;1535;51.098;6.414;2024-03-17T04:00:48;8.20;;;8.10;;
3050;SDS011;1535;51.098;6.414;2024-03-17T04:03:15;7.20;;;7.10;;
3050;SDS011;1535;51.098;6.414;2024-03-17T04:05:44;7.37;;;7.27;;
3050;SDS011;1535;51.098;6.414;2024-03-17T04:08:12;7.90;;;7.80;;
3050;SDS011;1535;51.098;6.414;2024-03-17T04:10:39;7.60;;;7.50;;
3050;SDS011;1535;51.098;6.414;2024-03-17T04:13:06;8.00;;;7.90;;
3050;SDS011;1535;51.098;6.414;2024-03-17T04:15:34;7.57;;;7.47;;
3050;SDS011;1535;51.098;6.414;2024-03-17T04:18:01;7.50;;;7.40;;
3050;SDS011;1535;51.098;6.414;2024-03-17T04:20:29;7.90;;;7.80;;
3050;SDS011;1535;51.098;6.414;2024-03-17T04:22:57;8.13;;;8.03;;
3050;SDS011;1535;51.098;6.414;2024-03-17T04:25:24;8.10;;;8.00;;
3050;SDS011;1535;51.098;6.414;2024-03-17T04:27:51;8.10;;;8.00;;
3050;SDS011;1535;51.098;6.414;2024-03-17T04:30:18;8.03;;;7.93;;
3050;SDS011;1535;51.098;6.414;2024-03-17T04:32:45;8.40;;;8.30;;
3050;SDS011;1535;51.098;6.414;2024-03-17T04:35:12;8.30;;;8.20;;
3050;SDS011;1535;51.098;6.414;2024-03-17T04:37:39;7.87;;;7.77;;
3050;SDS011;1535;51.098;6.414;2024-03-17T04:40:08;8.40;;;8.30;;
3050;SDS011;1535;51.098;6.414;2024-03-17T04:42:36;9.20;;;9.00;;
3050;SDS011;1535;51.098;6.414;2024-03-17T04:45:05;8.60;;;8.50;;
3050;SDS011;1535;51.098;6.414;2024-03-17T04:47:34;8.30;;;8.20;;
3050;SDS011;1535;51.098;6.414;2024-03-17T04:50:01;8.40;;;8.30;;
3050;SDS011;1535;51.098;6.414;2024-03-17T04:52:29;8.10;;;8.00;;
3050;SDS011;1535;51.098;6.414;2024-03-17T04:54:56;8.73;;;8.63;;
3050;SDS011;1535;51.098;6.414;2024-03-17T04:57:25;8.70;;;8.60;;
3050;SDS011;1535;51.098;6.414;2024-03-17T04:59:52;8.90;;;8.70;;
3050;SDS011;1535;51.098;6.414;2024-03-17T05:02:19;8.63;;;8.53;;
3050;SDS011;1535;51.098;6.414;2024-03-17T05:04:48;8.53;;;8.43;;
3050;SDS011;1535;51.098;6.414;2024-03-17T05:07:16;8.70;;;8.60;;
3050;SDS011;1535;51.098;6.414;2024-03-17T05:09:45;9.27;;;9.07;;
3050;SDS011;1535;51.098;6.414;2024-03-17T05:12:12;9.00;;;8.80;;
3050;SDS011;1535;51.098;6.414;2024-03-17T05:14:41;8.70;;;8.60;;
3050;SDS011;1535;51.098;6.414;2024-03-17T05:17:08;9.03;;;8.83;;
3050;SDS011;1535;51.098;6.414;2024-03-17T05:19:35;9.23;;;9.03;;
3050;SDS011;1535;51.098;6.414;2024-03-17T05:22:03;9.60;;;9.40;;
3050;SDS011;1535;51.098;6.414;2024-03-17T05:24:30;9.40;;;9.20;;
3050;SDS011;1535;51.098;6.414;2024-03-17T05:26:57;10.20;;;10.00;;
3050;SDS011;1535;51.098;6.414;2024-03-17T05:29:24;9.33;;;9.13;;
3050;SDS011;1535;51.098;6.414;2024-03-17T05:31:53;9.13;;;8.93;;
3050;SDS011;1535;51.098;6.414;2024-03-17T05:34:20;9.60;;;9.40;;
3050;SDS011;1535;51.098;6.414;2024-03-17T05:36:49;10.30;;;10.10;;
3050;SDS011;1535;51.098;6.414;2024-03-17T05:39:17;9.50;;;9.30;;
3050;SDS011;1535;51.098;6.414;2024-03-17T05:41:45;9.27;;;9.07;;
3050;SDS011;1535;51.098;6.414;2024-03-17T05:44:14;9.77;;;9.57;;
3050;SDS011;1535;51.098;6.414;2024-03-17T05:46:42;10.23;;;10.03;;
3050;SDS011;1535;51.098;6.414;2024-03-17T05:49:10;10.23;;;10.03;;
3050;SDS011;1535;51.098;6.414;2024-03-17T05:51:37;9.50;;;9.30;;
3050;SDS011;1535;51.098;6.414;2024-03-17T05:54:05;9.53;;;9.33;;
3050;SDS011;1535;51.098;6.414;2024-03-17T05:56:32;9.40;;;9.20;;
3050;SDS011;1535;51.098;6.414;2024-03-17T05:59:00;9.30;;;9.10;;
3050;SDS011;1535;51.098;6.414;2024-03-17T06:01:27;8.30;;;8.20;;
3050;SDS011;1535;51.098;6.414;2024-03-17T06:03:54;8.43;;;8.33;;
3050;SDS011;1535;51.098;6.414;2024-03-17T06:06:23;8.80;;;8.70;;
3050;SDS011;1535;51.098;6.414;2024-03-17T06:08:50;8.50;;;8.40;;
3050;SDS011;1535;51.098;6.414;2024-03-17T06:11:17;8.97;;;8.77;;
3050;SDS011;1535;51.098;6.414;2024-03-17T06:13:44;8.20;;;8.10;;
3050;SDS011;1535;51.098;6.414;2024-03-17T06:16:11;8.07;;;7.97;;
3050;SDS011;1535;51.098;6.414;2024-03-17T06:18:39;9.07;;;8.87;;
3050;SDS011;1535;51.098;6.414;2024-03-17T06:21:06;8.30;;;8.20;;
3050;SDS011;1535;51.098;6.414;2024-03-17T06:23:35;8.57;;;8.47;;
3050;SDS011;1535;51.098;6.414;2024-03-17T06:26:03;8.93;;;8.73;;
3050;SDS011;1535;51.098;6.414;2024-03-17T06:28:31;8.63;;;8.53;;
3050;SDS011;1535;51.098;6.414;2024-03-17T06:30:58;8.53;;;8.43;;
3050;SDS011;1535;51.098;6.414;2024-03-17T06:33:29;8.37;;;8.27;;
3050;SDS011;1535;51.098;6.414;2024-03-17T06:35:57;8.80;;;8.70;;
3050;SDS011;1535;51.098;6.414;2024-03-17T06:38:26;8.90;;;8.70;;
3050;SDS011;1535;51.098;6.414;2024-03-17T06:40:55;8.67;;;8.57;;
3050;SDS011;1535;51.098;6.414;2024-03-17T06:43:22;8.63;;;8.53;;
3050;SDS011;1535;51.098;6.414;2024-03-17T06:45:53;8.90;;;8.70;;
3050;SDS011;1535;51.098;6.414;2024-03-17T06:48:21;9.10;;;8.90;;
3050;SDS011;1535;51.098;6.414;2024-03-17T06:50:48;9.70;;;9.50;;
3050;SDS011;1535;51.098;6.414;2024-03-17T06:53:16;9.30;;;9.10;;
3050;SDS011;1535;51.098;6.414;2024-03-17T06:55:43;9.20;;;9.00;;
3050;SDS011;1535;51.098;6.414;2024-03-17T06:58:14;9.30;;;9.10;;
3050;SDS011;1535;51.098;6.414;2024-03-17T07:00:41;9.50;;;9.30;;
3050;SDS011;1535;51.098;6.414;2024-03-17T07:03:09;9.93;;;9.73;;
3050;SDS011;1535;51.098;6.414;2024-03-17T07:05:38;10.00;;;9.80;;
3050;SDS011;1535;51.098;6.414;2024-03-17T07:08:05;10.80;;;10.50;;
3050;SDS011;1535;51.098;6.414;2024-03-17T07:10:33;10.53;;;10.33;;
3050;SDS011;1535;51.098;6.414;2024-03-17T07:13:00;10.70;;;10.43;;
3050;SDS011;1535;51.098;6.414;2024-03-17T07:15:29;10.03;;;9.83;;
3050;SDS011;1535;51.098;6.414;2024-03-17T07:17:56;10.60;;;10.33;;
3050;SDS011;1535;51.098;6.414;2024-03-17T07:20:24;11.30;;;11.00;;
3050;SDS011;1535;51.098;6.414;2024-03-17T07:22:51;11.27;;;10.97;;
3050;SDS011;1535;51.098;6.414;2024-03-17T07:25:19;11.33;;;11.03;;
3050;SDS011;1535;51.098;6.414;2024-03-17T07:27:46;11.77;;;11.47;;
3050;SDS011;1535;51.098;6.414;2024-03-17T07:30:14;11.77;;;11.47;;
3050;SDS011;1535;51.098;6.414;2024-03-17T07:32:43;11.33;;;11.03;;
3050;SDS011;1535;51.098;6.414;2024-03-17T07:35:10;10.97;;;10.67;;
3050;SDS011;1535;51.098;6.414;2024-03-17T07:37:37;11.77;;;11.47;;
3050;SDS011;1535;51.098;6.414;2024-03-17T07:40:05;12.23;;;11.93;;
3050;SDS011;1535;51.098;6.414;2024-03-17T07:42:33;12.20;;;11.90;;
3050;SDS011;1535;51.098;6.414;2024-03-17T07:45:00;11.43;;;11.13;;
3050;SDS011;1535;51.098;6.414;2024-03-17T07:47:27;12.00;;;11.70;;
3050;SDS011;1535;51.098;6.414;2024-03-17T07:50:02;11.27;;;10.97;;
3050;SDS011;1535;51.098;6.414;2024-03-17T07:52:30;11.90;;;11.60;;
3050;SDS011;1535;51.098;6.414;2024-03-17T07:54:58;11.80;;;11.50;;
3050;SDS011;1535;51.098;6.414;2024-03-17T07:57:25;12.40;;;12.10;;
3050;SDS011;1535;51.098;6.414;2024-03-17T07:59:54;13.10;;;12.70;;
3050;SDS011;1535;51.098;6.414;2024-03-17T08:02:21;11.57;;;11.27;;
3050;SDS011;1535;51.098;6.414;2024-03-17T08:04:48;12.20;;;11.90;;
3050;SDS011;1535;51.098;6.414;2024-03-17T08:07:17;12.77;;;12.37;;
3050;SDS011;1535;51.098;6.414;2024-03-17T08:09:44;12.40;;;12.10;;
3050;SDS011;1535;51.098;6.414;2024-03-17T08:12:11;12.63;;;12.30;;
3050;SDS011;1535;51.098;6.414;2024-03-17T08:14:39;12.17;;;11.87;;
3050;SDS011;1535;51.098;6.414;2024-03-17T08:17:07;12.73;;;12.33;;
3050;SDS011;1535;51.098;6.414;2024-03-17T08:19:35;12.20;;;11.90;;
3050;SDS011;1535;51.098;6.414;2024-03-17T08:22:04;13.00;;;12.60;;
3050;SDS011;1535;51.098;6.414;2024-03-17T08:24:32;12.30;;;12.00;;
3050;SDS011;1535;51.098;6.414;2024-03-17T08:26:59;13.37;;;12.97;;
3050;SDS011;1535;51.098;6.414;2024-03-17T08:29:26;12.60;;;12.20;;
3050;SDS011;1535;51.098;6.414;2024-03-17T08:31:54;13.33;;;12.93;;
3050;SDS011;1535;51.098;6.414;2024-03-17T08:34:21;12.10;;;11.80;;
3050;SDS011;1535;51.098;6.414;2024-03-17T08:36:48;12.50;;;12.17;;
3050;SDS011;1535;51.098;6.414;2024-03-17T08:39:15;12.93;;;12.53;;
3050;SDS011;1535;51.098;6.414;2024-03-17T08:41:44;13.00;;;12.60;;
3050;SDS011;1535;51.098;6.414;2024-03-17T08:44:11;13.30;;;12.90;;
3050;SDS011;1535;51.098;6.414;2024-03-17T08:46:39;12.90;;;12.50;;
3050;SDS011;1535;51.098;6.414;2024-03-17T08:49:06;12.93;;;12.53;;
3050;SDS011;1535;51.098;6.414;2024-03-17T08:51:33;12.00;;;11.70;;
3050;SDS011;1535;51.098;6.414;2024-03-17T08:54:00;12.73;;;12.33;;
3050;SDS011;1535;51.098;6.414;2024-03-17T08:56:28;12.80;;;12.40;;
3050;SDS011;1535;51.098;6.414;2024-03-17T08:58:56;13.10;;;12.70;;
3050;SDS011;1535;51.098;6.414;2024-03-17T09:01:23;12.27;;;11.97;;
3050;SDS011;1535;51.098;6.414;2024-03-17T09:03:52;12.97;;;12.57;;
3050;SDS011;1535;51.098;6.414;2024-03-17T09:06:21;12.47;;;12.17;;
3050;SDS011;1535;51.098;6.414;2024-03-17T09:08:49;12.10;;;11.80;;
3050;SDS011;1535;51.098;6.414;2024-03-17T09:11:17;12.00;;;11.70;;
3050;SDS011;1535;51.098;6.414;2024-03-17T09:13:49;12.37;;;12.07;;
3050;SDS011;1535;51.098;6.414;2024-03-17T09:16:18;11.90;;;11.60;;
3050;SDS011;1535;51.098;6.414;2024-03-17T09:18:47;12.07;;;11.77;;
3050;SDS011;1535;51.098;6.414;2024-03-17T09:21:15;11.50;;;11.20;;
3050;SDS011;1535;51.098;6.414;2024-03-17T09:23:42;12.47;;;12.17;;
3050;SDS011;1535;51.098;6.414;2024-03-17T09:26:10;12.20;;;11.90;;
3050;SDS011;1535;51.098;6.414;2024-03-17T09:28:39;12.00;;;11.70;;
3050;SDS011;1535;51.098;6.414;2024-03-17T09:31:06;11.83;;;11.53;;
3050;SDS011;1535;51.098;6.414;2024-03-17T09:33:35;11.60;;;11.30;;
3050;SDS011;1535;51.098;6.414;2024-03-17T09:36:03;11.83;;;11.53;;
3050;SDS011;1535;51.098;6.414;2024-03-17T09:38:32;11.20;;;10.90;;
3050;SDS011;1535;51.098;6.414;2024-03-17T09:41:01;11.87;;;11.57;;
3050;SDS011;1535;51.098;6.414;2024-03-17T09:43:28;11.47;;;11.17;;
3050;SDS011;1535;51.098;6.414;2024-03-17T09:45:56;11.77;;;11.47;;
3050;SDS011;1535;51.098;6.414;2024-03-17T09:48:23;11.57;;;11.27;;
3050;SDS011;1535;51.098;6.414;2024-03-17T09:50:55;12.10;;;11.80;;
3050;SDS011;1535;51.098;6.414;2024-03-17T09:53:23;11.80;;;11.50;;
3050;SDS011;1535;51.098;6.414;2024-03-17T09:55:52;11.70;;;11.40;;
3050;SDS011;1535;51.098;6.414;2024-03-17T09:58:20;11.87;;;11.57;;
3050;SDS011;1535;51.098;6.414;2024-03-17T10:00:47;12.03;;;11.73;;
3050;SDS011;1535;51.098;6.414;2024-03-17T10:03:38;12.10;;;11.80;;
3050;SDS011;1535;51.098;6.414;2024-03-17T10:06:08;12.40;;;12.10;;
3050;SDS011;1535;51.098;6.414;2024-03-17T10:08:40;12.63;;;12.30;;
3050;SDS011;1535;51.098;6.414;2024-03-17T10:11:07;12.47;;;12.17;;
3050;SDS011;1535;51.098;6.414;2024-03-17T10:13:34;12.07;;;11.77;;
3050;SDS011;1535;51.098;6.414;2024-03-17T10:16:01;12.03;;;11.73;;
3050;SDS011;1535;51.098;6.414;2024-03-17T10:18:29;13.40;;;13.00;;
3050;SDS011;1535;51.098;6.414;2024-03-17T10:20:56;12.87;;;12.47;;
3050;SDS011;1535;51.098;6.414;2024-03-17T10:23:27;12.23;;;11.93;;
3050;SDS011;1535;51.098;6.414;2024-03-17T10:25:54;12.40;;;12.10;;
3050;SDS011;1535;51.098;6.414;2024-03-17T10:28:22;12.30;;;12.00;;
3050;SDS011;1535;51.098;6.414;2024-03-17T10:30:58;12.30;;;12.00;;
3050;SDS011;1535;51.098;6.414;2024-03-17T10:33:26;12.33;;;12.03;;
3050;SDS011;1535;51.098;6.414;2024-03-17T10:36:02;12.70;;;12.37;;
3050;SDS011;1535;51.098;6.414;2024-03-17T10:38:32;13.60;;;13.20;;
3050;SDS011;1535;51.098;6.414;2024-03-17T10:41:00;12.93;;;12.53;;
3050;SDS011;1535;51.098;6.414;2024-03-17T10:43:28;13.47;;;13.07;;
3050;SDS011;1535;51.098;6.414;2024-03-17T10:45:56;12.50;;;12.20;;
3050;SDS011;1535;51.098;6.414;2024-03-17T10:48:26;12.90;;;12.50;;
3050;SDS011;1535;51.098;6.414;2024-03-17T10:50:57;13.13;;;12.73;;
3050;SDS011;1535;51.098;6.414;2024-03-17T10:53:27;12.70;;;12.30;;
3050;SDS011;1535;51.098;6.414;2024-03-17T10:56:04;13.50;;;13.10;;
3050;SDS011;1535;51.098;6.414;2024-03-17T10:58:34;13.57;;;13.17;;
3050;SDS011;1535;51.098;6.414;2024-03-17T11:01:02;13.83;;;13.43;;
3050;SDS011;1535;51.098;6.414;2024-03-17T11:03:31;13.70;;;13.30;;
3050;SDS011;1535;51.098;6.414;2024-03-17T11:05:59;13.30;;;12.90;;
3050;SDS011;1535;51.098;6.414;2024-03-17T11:08:29;13.50;;;13.10;;
3050;SDS011;1535;51.098;6.414;2024-03-17T11:10:58;13.57;;;13.17;;
3050;SDS011;1535;51.098;6.414;2024-03-17T11:13:26;12.90;;;12.50;;
3050;SDS011;1535;51.098;6.414;2024-03-17T11:15:53;12.60;;;12.30;;
3050;SDS011;1535;51.098;6.414;2024-03-17T11:21:18;13.30;;;12.90;;
3050;SDS011;1535;51.098;6.414;2024-03-17T11:23:54;13.63;;;13.23;;
3050;SDS011;1535;51.098;6.414;2024-03-17T11:26:27;13.70;;;13.30;;
3050;SDS011;1535;51.098;6.414;2024-03-17T11:28:54;13.30;;;12.90;;
3050;SDS011;1535;51.098;6.414;2024-03-17T11:34:31;13.20;;;12.80;;
3050;SDS011;1535;51.098;6.414;2024-03-17T11:36:57;13.20;;;12.80;;
3050;SDS011;1535;51.098;6.414;2024-03-17T11:42:12;13.87;;;13.47;;
3050;SDS011;1535;51.098;6.414;2024-03-17T11:44:41;13.20;;;12.80;;
3050;SDS011;1535;51.098;6.414;2024-03-17T11:47:08;13.10;;;12.70;;
3050;SDS011;1535;51.098;6.414;2024-03-17T11:49:36;13.30;;;12.90;;
3050;SDS011;1535;51.098;6.414;2024-03-17T11:52:03;13.20;;;12.80;;
3050;SDS011;1535;51.098;6.414;2024-03-17T11:54:34;13.53;;;13.13;;
3050;SDS011;1535;51.098;6.414;2024-03-17T11:57:00;13.57;;;13.17;;
3050;SDS011;1535;51.098;6.414;2024-03-17T11:59:29;13.20;;;12.80;;
3050;SDS011;1535;51.098;6.414;2024-03-17T12:01:55;13.30;;;12.90;;
3050;SDS011;1535;51.098;6.414;2024-03-17T12:04:24;13.80;;;13.40;;
3050;SDS011;1535;51.098;6.414;2024-03-17T12:06:51;14.03;;;13.63;;
3050;SDS011;1535;51.098;6.414;2024-03-17T12:09:19;13.23;;;12.83;;
3050;SDS011;1535;51.098;6.414;2024-03-17T12:11:46;13.67;;;13.27;;
3050;SDS011;1535;51.098;6.414;2024-03-17T12:14:15;13.47;;;13.07;;
3050;SDS011;1535;51.098;6.414;2024-03-17T12:16:52;13.57;;;13.17;;
3050;SDS011;1535;51.098;6.414;2024-03-17T12:19:19;14.37;;;13.87;;
3050;SDS011;1535;51.098;6.414;2024-03-17T12:21:47;14.40;;;13.90;;
3050;SDS011;1535;51.098;6.414;2024-03-17T12:24:16;14.47;;;13.97;;
3050;SDS011;1535;51.098;6.414;2024-03-17T12:26:43;14.50;;;14.00;;
3050;SDS011;1535;51.098;6.414;2024-03-17T12:29:23;14.60;;;14.10;;
3050;SDS011;1535;51.098;6.414;2024-03-17T12:31:51;14.40;;;13.90;;
3050;SDS011;1535;51.098;6.414;2024-03-17T12:34:19;14.40;;;13.90;;
3050;SDS011;1535;51.098;6.414;2024-03-17T12:36:45;14.70;;;14.20;;
3050;SDS011;1535;51.098;6.414;2024-03-17T12:39:19;14.93;;;14.43;;
3050;SDS011;1535;51.098;6.414;2024-03-17T12:42:00;14.43;;;13.93;;
3050;SDS011;1535;51.098;6.414;2024-03-17T12:44:28;14.60;;;14.10;;
3050;SDS011;1535;51.098;6.414;2024-03-17T12:46:56;13.73;;;13.33;;
3050;SDS011;1535;51.098;6.414;2024-03-17T12:49:25;13.90;;;13.50;;
3050;SDS011;1535;51.098;6.414;2024-03-17T12:51:52;13.70;;;13.30;;
3050;SDS011;1535;51.098;6.414;2024-03-17T12:54:21;13.70;;;13.30;;
3050;SDS011;1535;51.098;6.414;2024-03-17T12:56:48;14.00;;;13.60;;
3050;SDS011;1535;51.098;6.414;2024-03-17T12:59:37;13.50;;;13.10;;
3050;SDS011;1535;51.098;6.414;2024-03-17T13:02:35;14.00;;;13.50;;
3050;SDS011;1535;51.098;6.414;2024-03-17T13:05:16;13.80;;;13.40;;
3050;SDS011;1535;51.098;6.414;2024-03-17T13:07:45;13.80;;;13.40;;
3050;SDS011;1535;51.098;6.414;2024-03-17T13:10:13;14.20;;;13.70;;
3050;SDS011;1535;51.098;6.414;2024-03-17T13:12:41;14.10;;;13.60;;
3050;SDS011;1535;51.098;6.414;2024-03-17T13:15:08;13.93;;;13.53;;
3050;SDS011;1535;51.098;6.414;2024-03-17T13:17:38;14.03;;;13.60;;
3050;SDS011;1535;51.098;6.414;2024-03-17T13:20:06;13.83;;;13.43;;
3050;SDS011;1535;51.098;6.414;2024-03-17T13:22:36;13.40;;;13.00;;
3050;SDS011;1535;51.098;6.414;2024-03-17T13:25:05;13.63;;;13.23;;
3050;SDS011;1535;51.098;6.414;2024-03-17T13:27:33;13.70;;;13.30;;
3050;SDS011;1535;51.098;6.414;2024-03-17T13:30:00;13.70;;;13.30;;
3050;SDS011;1535;51.098;6.414;2024-03-17T13:32:28;13.90;;;13.50;;
3050;SDS011;1535;51.098;6.414;2024-03-17T13:34:56;13.90;;;13.50;;
3050;SDS011;1535;51.098;6.414;2024-03-17T13:37:24;14.13;;;13.70;;
3050;SDS011;1535;51.098;6.414;2024-03-17T13:39:51;13.47;;;13.07;;
3050;SDS011;1535;51.098;6.414;2024-03-17T13:42:18;13.90;;;13.50;;
3050;SDS011;1535;51.098;6.414;2024-03-17T13:44:47;13.50;;;13.10;;
3050;SDS011;1535;51.098;6.414;2024-03-17T13:47:14;13.87;;;13.43;;
3050;SDS011;1535;51.098;6.414;2024-03-17T13:49:43;13.30;;;12.90;;
3050;SDS011;1535;51.098;6.414;2024-03-17T13:52:14;13.60;;;13.20;;
3050;SDS011;1535;51.098;6.414;2024-03-17T13:54:41;14.57;;;14.07;;
3050;SDS011;1535;51.098;6.414;2024-03-17T13:57:08;14.40;;;13.90;;
3050;SDS011;1535;51.098;6.414;2024-03-17T13:59:37;14.10;;;13.70;;
3050;SDS011;1535;51.098;6.414;2024-03-17T14:02:04;14.23;;;13.77;;
3050;SDS011;1535;51.098;6.414;2024-03-17T14:04:32;14.80;;;14.30;;
3050;SDS011;1535;51.098;6.414;2024-03-17T14:07:01;13.90;;;13.50;;
3050;SDS011;1535;51.098;6.414;2024-03-17T14:09:30;13.70;;;13.30;;
3050;SDS011;1535;51.098;6.414;2024-03-17T14:11:57;13.50;;;13.10;;
3050;SDS011;1535;51.098;6.414;2024-03-17T14:14:24;13.80;;;13.40;;
3050;SDS011;1535;51.098;6.414;2024-03-17T14:16:51;14.40;;;13.90;;
3050;SDS011;1535;51.098;6.414;2024-03-17T14:19:18;14.40;;;13.90;;
3050;SDS011;1535;51.098;6.414;2024-03-17T14:21:46;14.43;;;13.93;;
3050;SDS011;1535;51.098;6.414;2024-03-17T14:24:13;14.77;;;14.27;;
3050;SDS011;1535;51.098;6.414;2024-03-17T14:26:42;14.40;;;13.90;;
3050;SDS011;1535;51.098;6.414;2024-03-17T14:29:09;14.20;;;13.70;;
3050;SDS011;1535;51.098;6.414;2024-03-17T14:31:36;14.40;;;13.90;;
3050;SDS011;1535;51.098;6.414;2024-03-17T14:34:06;14.60;;;14.10;;
3050;SDS011;1535;51.098;6.414;2024-03-17T14:36:34;14.53;;;14.03;;
3050;SDS011;1535;51.098;6.414;2024-03-17T14:39:02;14.90;;;14.40;;
3050;SDS011;1535;51.098;6.414;2024-03-17T14:41:29;14.70;;;14.20;;
3050;SDS011;1535;51.098;6.414;2024-03-17T14:43:58;15.30;;;14.70;;
3050;SDS011;1535;51.098;6.414;2024-03-17T14:46:26;15.27;;;14.67;;
3050;SDS011;1535;51.098;6.414;2024-03-17T14:48:53;15.27;;;14.67;;
3050;SDS011;1535;51.098;6.414;2024-03-17T14:51:20;15.00;;;14.40;;
3050;SDS011;1535;51.098;6.414;2024-03-17T14:53:48;15.33;;;14.73;;
3050;SDS011;1535;51.098;6.414;2024-03-17T14:56:17;14.80;;;14.30;;
3050;SDS011;1535;51.098;6.414;2024-03-17T14:58:45;14.93;;;14.43;;
3050;SDS011;1535;51.098;6.414;2024-03-17T15:01:14;15.10;;;14.50;;
3050;SDS011;1535;51.098;6.414;2024-03-17T15:03:41;15.30;;;14.70;;
3050;SDS011;1535;51.098;6.414;2024-03-17T15:06:11;15.47;;;14.87;;
3050;SDS011;1535;51.098;6.414;2024-03-17T15:08:39;15.20;;;14.60;;
3050;SDS011;1535;51.098;6.414;2024-03-17T15:11:07;15.20;;;14.60;;
3050;SDS011;1535;51.098;6.414;2024-03-17T15:13:34;14.93;;;14.33;;
3050;SDS011;1535;51.098;6.414;2024-03-17T15:16:01;14.70;;;14.20;;